Time;durP1;ratioP1;P1;durP2;ratioP2;P2;SDS_P1;SDS_P2;PMS_P1;PMS_P2;Temp;Humidity;BMP_temperature;BMP_pressure;BME280_temperature;BME280_humidity;BME280_pressure;Samples;Min_cycle;Max_cycle;Signal;HPM_P1;HPM_P2
2022/11/01 00:02:09;;;;;;;;;;;15.40;99.90;;;;;;5080534;28;19924;-71
2022/11/01 00:04:35;;;;;;;;;;;15.30;99.90;;;;;;5087912;28;19962;-71
2022/11/01 00:07:01;;;;;;;;;;;15.30;99.90;;;;;;5074509;28;19913;-70
2022/11/01 00:09:26;;;;;;;;;;;15.30;99.90;;;;;;5068102;28;19962;-71
2022/11/01 00:11:52;;;;;;;;;;;15.30;99.90;;;;;;5083750;28;19935;-71
2022/11/01 00:14:18;;;;;;;;;;;15.30;99.90;;;;;;5084799;28;20045;-70
2022/11/01 00:16:44;;;;;;;;;;;15.40;99.90;;;;;;5090847;28;20003;-70
2022/11/01 00:19:10;;;;;;;;;;;15.50;99.90;;;;;;5075370;28;20001;-70
2022/11/01 00:21:35;;;;;;;;;;;15.50;99.90;;;;;;5076430;28;20011;-71
2022/11/01 00:24:01;;;;;;;;;;;15.40;99.90;;;;;;5092091;28;20015;-71
2022/11/01 00:26:27;;;;;;;;;;;15.50;99.90;;;;;;5069716;28;19916;-71
2022/11/01 00:28:53;;;;;;;;;;;15.40;99.90;;;;;;5072441;28;20283;-71
2022/11/01 00:31:19;;;;;;;;;;;15.30;99.90;;;;;;5074062;28;19967;-71
2022/11/01 00:33:45;;;;;;;;;;;15.30;99.90;;;;;;5079573;28;19917;-71
2022/11/01 00:36:11;;;;;;;;;;;15.20;99.90;;;;;;5059130;28;20443;-71
2022/11/01 00:38:37;;;;;;;;;;;15.20;99.90;;;;;;5075746;28;19920;-71
2022/11/01 00:41:03;;;;;;;;;;;15.10;99.90;;;;;;5086785;28;19912;-71
2022/11/01 00:43:32;;;;;;;;;;;15.10;99.90;;;;;;5083636;28;19912;-71
2022/11/01 00:45:59;;;;;;;;;;;15.00;99.90;;;;;;5085514;28;19908;-71
2022/11/01 00:48:24;;;;;;;;;;;15.00;99.90;;;;;;5073745;28;19950;-71
2022/11/01 00:50:50;;;;;;;;;;;15.00;99.90;;;;;;5075327;28;20286;-71
2022/11/01 00:53:16;;;;;;;;;;;15.00;99.90;;;;;;5057027;28;20275;-71
2022/11/01 00:55:42;;;;;;;;;;;14.90;99.90;;;;;;5074904;28;19980;-71
2022/11/01 00:58:08;;;;;;;;;;;15.00;99.90;;;;;;5075319;28;19912;-71
2022/11/01 01:00:34;;;;;;;;;;;14.90;99.90;;;;;;5065905;28;19913;-71
2022/11/01 01:03:00;;;;;;;;;;;14.90;99.90;;;;;;5075553;28;19920;-71
2022/11/01 01:05:25;;;;;;;;;;;14.90;99.90;;;;;;5073650;28;19912;-71
2022/11/01 01:07:51;;;;;;;;;;;14.90;99.90;;;;;;5078294;28;19909;-71
2022/11/01 01:10:17;;;;;;;;;;;14.80;99.90;;;;;;5074797;28;20007;-71
2022/11/01 01:12:43;;;;;;;;;;;14.80;99.90;;;;;;5074759;28;19944;-71
2022/11/01 01:15:08;;;;;;;;;;;14.80;99.90;;;;;;5056498;28;19920;-71
2022/11/01 01:17:34;;;;;;;;;;;14.80;99.90;;;;;;5056097;28;19913;-71
2022/11/01 01:20:00;;;;;;;;;;;14.80;99.90;;;;;;5056457;28;19909;-72
2022/11/01 01:22:27;;;;;;;;;;;14.90;99.90;;;;;;5053398;28;19916;-71
2022/11/01 01:24:52;;;;;;;;;;;14.80;99.90;;;;;;5054617;28;20051;-71
2022/11/01 01:27:18;;;;;;;;;;;14.80;99.90;;;;;;5036667;28;19952;-71
2022/11/01 01:29:44;;;;;;;;;;;14.80;99.90;;;;;;5054496;28;20367;-71
2022/11/01 01:32:14;;;;;;;;;;;14.80;99.90;;;;;;5054514;28;19983;-72
2022/11/01 01:34:39;;;;;;;;;;;14.70;99.90;;;;;;5068090;28;19912;-71
2022/11/01 01:37:06;;;;;;;;;;;14.70;99.90;;;;;;5073152;28;19991;-72
2022/11/01 01:39:32;;;;;;;;;;;14.80;99.90;;;;;;5054716;28;19958;-71
2022/11/01 01:41:58;;;;;;;;;;;14.80;99.90;;;;;;5054673;28;19912;-71
2022/11/01 01:44:59;;;;;;;;;;;14.80;99.90;;;;;;5072462;28;19955;-71
2022/11/01 01:47:27;;;;;;;;;;;14.70;99.90;;;;;;4971372;28;19914;-71
2022/11/01 01:49:59;;;;;;;;;;;14.70;99.90;;;;;;5053186;28;19908;-71
2022/11/01 01:52:27;;;;;;;;;;;14.70;99.90;;;;;;5062087;28;19973;-72
2022/11/01 01:54:53;;;;;;;;;;;14.70;99.90;;;;;;5055385;28;20354;-71
2022/11/01 01:57:19;;;;;;;;;;;14.70;99.90;;;;;;5055578;28;19915;-71
2022/11/01 01:59:45;;;;;;;;;;;14.80;99.90;;;;;;5064216;28;19912;-71
2022/11/01 02:02:11;;;;;;;;;;;14.80;99.90;;;;;;5075367;28;19916;-71
2022/11/01 02:04:40;;;;;;;;;;;14.80;99.90;;;;;;5093667;28;19908;-71
2022/11/01 02:07:06;;;;;;;;;;;14.80;99.90;;;;;;5090217;28;19918;-71
2022/11/01 02:09:32;;;;;;;;;;;14.70;99.90;;;;;;5063061;28;19958;-71
2022/11/01 02:11:58;;;;;;;;;;;14.70;99.90;;;;;;5055835;28;19909;-71
2022/11/01 02:14:24;;;;;;;;;;;14.60;99.90;;;;;;5071188;28;19943;-71
2022/11/01 02:17:02;;;;;;;;;;;14.70;99.90;;;;;;5075868;28;19909;-71
2022/11/01 02:19:31;;;;;;;;;;;14.60;99.90;;;;;;5074168;28;19931;-71
2022/11/01 02:22:00;;;;;;;;;;;14.60;99.90;;;;;;5073984;28;20360;-71
2022/11/01 02:24:26;;;;;;;;;;;14.60;99.90;;;;;;5072684;28;19948;-71
2022/11/01 02:27:21;;;;;;;;;;;14.60;99.90;;;;;;5071670;28;20392;-71
2022/11/01 02:29:50;;;;;;;;;;;14.60;99.90;;;;;;5058842;28;19908;-71
2022/11/01 02:32:37;;;;;;;;;;;14.60;99.90;;;;;;5094215;28;19908;-71
2022/11/01 02:35:12;;;;;;;;;;;14.60;99.90;;;;;;5084470;28;19936;-71
2022/11/01 02:37:45;;;;;;;;;;;14.60;99.90;;;;;;5088999;28;19958;-71
2022/11/01 02:40:15;;;;;;;;;;;14.60;99.90;;;;;;5074005;28;20042;-71
2022/11/01 02:42:43;;;;;;;;;;;14.60;99.90;;;;;;5058420;28;19908;-71
2022/11/01 02:45:27;;;;;;;;;;;14.80;99.90;;;;;;5060671;28;19921;-71
2022/11/01 02:47:55;;;;;;;;;;;14.80;99.90;;;;;;5072449;28;19912;-71
2022/11/01 02:50:20;;;;;;;;;;;14.70;99.90;;;;;;5075307;28;19909;-71
2022/11/01 02:52:46;;;;;;;;;;;14.80;99.90;;;;;;5093972;28;19909;-72
2022/11/01 02:55:28;;;;;;;;;;;14.80;99.90;;;;;;5085426;28;19916;-71
2022/11/01 02:58:20;;;;;;;;;;;14.90;99.90;;;;;;5075707;28;19927;-71
2022/11/01 03:00:46;;;;;;;;;;;14.90;99.90;;;;;;5052595;28;19913;-71
2022/11/01 03:03:11;;;;;;;;;;;14.90;99.90;;;;;;5056837;28;19909;-73
2022/11/01 03:05:52;;;;;;;;;;;14.80;99.90;;;;;;5075534;28;19930;-72
2022/11/01 03:08:20;;;;;;;;;;;14.80;99.90;;;;;;5081984;28;19912;-73
2022/11/01 03:10:49;;;;;;;;;;;14.70;99.90;;;;;;5096546;28;19923;-73
2022/11/01 03:13:31;;;;;;;;;;;14.50;99.90;;;;;;5097171;28;20378;-73
2022/11/01 03:16:11;;;;;;;;;;;14.50;99.90;;;;;;5080443;28;19912;-73
2022/11/01 03:18:41;;;;;;;;;;;14.40;99.90;;;;;;5091776;28;19908;-73
2022/11/01 03:21:15;;;;;;;;;;;14.40;99.90;;;;;;5078711;28;19930;-75
2022/11/01 03:23:48;;;;;;;;;;;14.40;99.90;;;;;;5097020;28;19940;-73
2022/11/01 03:26:15;;;;;;;;;;;14.40;99.90;;;;;;5078497;28;19912;-73
2022/11/01 03:28:46;;;;;;;;;;;14.40;99.90;;;;;;5078039;28;19974;-73
2022/11/01 03:31:14;;;;;;;;;;;14.30;99.90;;;;;;5097031;28;20358;-76
2022/11/01 03:33:42;;;;;;;;;;;14.20;99.90;;;;;;5076996;28;19916;-73
2022/11/01 03:36:10;;;;;;;;;;;14.20;99.90;;;;;;5084606;28;19912;-73
2022/11/01 03:38:37;;;;;;;;;;;14.20;99.90;;;;;;5096498;28;19908;-72
2022/11/01 03:41:05;;;;;;;;;;;14.20;99.90;;;;;;5077640;28;19948;-73
2022/11/01 03:43:31;;;;;;;;;;;14.20;99.90;;;;;;5074346;28;19962;-73
2022/11/01 03:45:57;;;;;;;;;;;14.20;99.90;;;;;;5076016;28;19908;-72
2022/11/01 03:48:23;;;;;;;;;;;14.10;99.90;;;;;;5076334;28;19915;-73
2022/11/01 03:50:55;;;;;;;;;;;14.00;99.90;;;;;;5083528;28;19912;-72
2022/11/01 03:53:21;;;;;;;;;;;13.90;99.90;;;;;;5077584;28;19950;-71
2022/11/01 03:55:46;;;;;;;;;;;13.90;99.90;;;;;;5096625;28;19908;-71
2022/11/01 03:58:12;;;;;;;;;;;13.90;99.90;;;;;;5061378;28;19919;-71
2022/11/01 04:00:40;;;;;;;;;;;14.00;99.90;;;;;;5083662;28;19908;-71
2022/11/01 04:03:06;;;;;;;;;;;14.00;99.90;;;;;;5078366;28;19911;-70
2022/11/01 04:05:33;;;;;;;;;;;14.00;99.90;;;;;;5078079;28;20070;-71
2022/11/01 04:07:58;;;;;;;;;;;13.90;99.90;;;;;;5072933;28;19913;-71
2022/11/01 04:10:25;;;;;;;;;;;13.90;99.90;;;;;;5077398;28;19912;-71
2022/11/01 04:12:51;;;;;;;;;;;14.00;99.90;;;;;;5096313;28;19961;-71
2022/11/01 04:20:47;;;;;;;;;;;13.90;99.90;;;;;;5082611;28;19919;-71
2022/11/01 04:23:12;;;;;;;;;;;13.90;99.90;;;;;;5056463;28;19908;-71
2022/11/01 04:25:38;;;;;;;;;;;13.90;99.90;;;;;;5074670;28;19909;-71
2022/11/01 04:28:04;;;;;;;;;;;13.90;99.90;;;;;;5075236;28;19917;-70
2022/11/01 04:30:29;;;;;;;;;;;13.90;99.90;;;;;;5057469;28;19912;-71
2022/11/01 04:32:55;;;;;;;;;;;13.90;99.90;;;;;;5063097;28;20003;-71
2022/11/01 04:35:22;;;;;;;;;;;13.90;99.90;;;;;;5072820;28;20027;-71
2022/11/01 04:37:47;;;;;;;;;;;13.90;99.90;;;;;;5056282;28;19970;-71
2022/11/01 04:40:14;;;;;;;;;;;13.90;99.90;;;;;;5074117;28;19912;-71
2022/11/01 04:42:40;;;;;;;;;;;13.90;99.90;;;;;;5074867;28;19908;-71
2022/11/01 04:45:06;;;;;;;;;;;14.00;99.90;;;;;;5074990;28;19919;-71
2022/11/01 04:47:32;;;;;;;;;;;14.00;99.90;;;;;;5071643;28;19944;-71
2022/11/01 04:49:58;;;;;;;;;;;13.90;99.90;;;;;;5080476;28;19955;-70
2022/11/01 04:52:23;;;;;;;;;;;13.80;99.90;;;;;;5072426;28;19909;-71
2022/11/01 04:54:49;;;;;;;;;;;13.80;99.90;;;;;;5071850;28;19916;-71
2022/11/01 04:57:24;;;;;;;;;;;13.80;99.90;;;;;;5071107;28;19924;-71
2022/11/01 04:59:53;;;;;;;;;;;13.80;99.90;;;;;;5072295;28;19909;-70
2022/11/01 05:02:20;;;;;;;;;;;13.90;99.90;;;;;;5072438;28;19923;-71
2022/11/01 05:04:46;;;;;;;;;;;13.80;99.90;;;;;;5072188;28;19908;-71
2022/11/01 05:07:12;;;;;;;;;;;13.80;99.90;;;;;;5072711;28;19914;-71
2022/11/01 05:09:38;;;;;;;;;;;13.80;99.90;;;;;;5073306;28;19915;-70
2022/11/01 05:12:04;;;;;;;;;;;13.80;99.90;;;;;;5090030;28;19908;-70
2022/11/01 05:14:29;;;;;;;;;;;13.80;99.90;;;;;;5081853;28;19956;-71
2022/11/01 05:16:55;;;;;;;;;;;13.80;99.90;;;;;;5064590;28;19912;-70
2022/11/01 05:19:21;;;;;;;;;;;13.70;99.90;;;;;;5055129;28;19963;-71
2022/11/01 05:21:47;;;;;;;;;;;13.80;99.90;;;;;;5055853;28;20294;-70
2022/11/01 05:24:13;;;;;;;;;;;13.70;99.90;;;;;;5056376;28;19912;-71
2022/11/01 05:26:39;;;;;;;;;;;13.70;99.90;;;;;;5057005;28;19993;-70
2022/11/01 05:29:04;;;;;;;;;;;13.70;99.90;;;;;;5057284;28;19918;-71
2022/11/01 05:31:30;;;;;;;;;;;13.80;99.90;;;;;;5069842;28;19908;-71
2022/11/01 05:34:19;;;;;;;;;;;13.80;99.90;;;;;;5065132;28;19916;-71
2022/11/01 05:36:45;;;;;;;;;;;13.80;99.90;;;;;;5071040;28;19917;-71
2022/11/01 05:39:14;;;;;;;;;;;13.80;99.90;;;;;;5081941;28;19912;-72
2022/11/01 05:41:40;;;;;;;;;;;13.70;99.90;;;;;;5083249;28;19912;-72
2022/11/01 05:44:06;;;;;;;;;;;13.80;99.90;;;;;;5070655;28;19975;-72
2022/11/01 05:46:34;;;;;;;;;;;13.70;99.90;;;;;;5074454;28;20288;-72
2022/11/01 05:49:00;;;;;;;;;;;13.70;99.90;;;;;;5057481;28;19920;-71
2022/11/01 05:51:28;;;;;;;;;;;13.70;99.90;;;;;;5073163;28;19916;-71
2022/11/01 05:53:54;;;;;;;;;;;13.60;99.90;;;;;;5095235;28;20398;-72
2022/11/01 05:56:20;;;;;;;;;;;13.60;99.90;;;;;;5095089;28;19915;-72
2022/11/01 05:58:47;;;;;;;;;;;13.60;99.90;;;;;;5093629;28;20380;-72
2022/11/01 06:01:13;;;;;;;;;;;13.50;99.90;;;;;;5095070;28;20096;-71
2022/11/01 06:03:38;;;;;;;;;;;13.50;99.90;;;;;;5095596;28;19908;-71
2022/11/01 06:06:04;;;;;;;;;;;13.40;99.90;;;;;;5073790;28;19909;-72
2022/11/01 06:08:30;;;;;;;;;;;13.50;99.90;;;;;;5054240;28;19924;-71
2022/11/01 06:11:01;;;;;;;;;;;13.50;99.90;;;;;;5053429;28;19976;-72
2022/11/01 06:13:27;;;;;;;;;;;13.50;99.90;;;;;;5053616;28;19916;-72
2022/11/01 06:15:59;;;;;;;;;;;13.60;99.90;;;;;;5053595;28;19909;-71
2022/11/01 06:18:25;;;;;;;;;;;13.60;99.90;;;;;;5041934;28;19916;-72
2022/11/01 06:20:50;;;;;;;;;;;13.60;99.90;;;;;;5073598;28;20437;-71
2022/11/01 06:23:16;;;;;;;;;;;13.60;99.90;;;;;;5060763;28;19909;-72
2022/11/01 06:25:42;;;;;;;;;;;13.70;99.90;;;;;;5052234;28;20385;-71
2022/11/01 06:28:07;;;;;;;;;;;13.80;99.90;;;;;;5092244;28;20388;-71
2022/11/01 06:30:33;;;;;;;;;;;13.80;99.90;;;;;;5093976;28;20327;-71
2022/11/01 06:33:02;;;;;;;;;;;13.80;99.90;;;;;;5103905;28;19983;-72
2022/11/01 06:35:27;;;;;;;;;;;13.80;99.90;;;;;;5108440;28;20409;-72
2022/11/01 06:37:53;;;;;;;;;;;13.80;99.90;;;;;;5104770;28;19938;-71
2022/11/01 06:40:20;;;;;;;;;;;13.80;99.90;;;;;;5073210;28;19909;-71
2022/11/01 06:42:46;;;;;;;;;;;13.90;99.90;;;;;;5039726;28;19913;-71
2022/11/01 06:45:11;;;;;;;;;;;13.90;99.90;;;;;;5057475;28;20337;-71
2022/11/01 06:47:37;;;;;;;;;;;13.90;99.90;;;;;;5055982;28;19908;-71
2022/11/01 06:50:03;;;;;;;;;;;13.90;99.90;;;;;;5076559;28;20011;-72
2022/11/01 06:52:29;;;;;;;;;;;14.00;99.90;;;;;;5059935;28;19908;-72
2022/11/01 06:54:55;;;;;;;;;;;14.00;99.90;;;;;;5077106;28;19942;-72
2022/11/01 06:57:21;;;;;;;;;;;14.20;99.90;;;;;;5058956;28;19928;-72
2022/11/01 06:59:46;;;;;;;;;;;14.20;99.90;;;;;;5076793;28;19920;-72
2022/11/01 07:02:12;;;;;;;;;;;14.20;99.90;;;;;;5077564;28;19917;-72
2022/11/01 07:04:38;;;;;;;;;;;14.20;99.90;;;;;;5058676;28;19912;-72
2022/11/01 07:07:03;;;;;;;;;;;14.30;99.90;;;;;;5074056;28;19916;-72
2022/11/01 07:09:29;;;;;;;;;;;14.40;99.90;;;;;;5092121;28;19909;-72
2022/11/01 07:11:55;;;;;;;;;;;14.50;99.90;;;;;;5068734;28;20345;-71
2022/11/01 07:14:21;;;;;;;;;;;14.50;99.90;;;;;;5046566;28;19913;-72
2022/11/01 07:16:46;;;;;;;;;;;14.60;99.90;;;;;;5039563;28;19908;-71
2022/11/01 07:19:12;;;;;;;;;;;14.70;99.90;;;;;;5069282;28;19917;-71
2022/11/01 07:21:37;;;;;;;;;;;14.80;99.90;;;;;;5076634;28;20329;-72
2022/11/01 07:24:04;;;;;;;;;;;14.90;99.90;;;;;;5076389;28;19909;-71
2022/11/01 07:26:29;;;;;;;;;;;14.90;99.90;;;;;;5076570;28;20319;-72
2022/11/01 07:28:55;;;;;;;;;;;15.00;99.90;;;;;;5076792;28;20033;-71
2022/11/01 07:31:21;;;;;;;;;;;15.00;99.90;;;;;;5064138;28;20003;-71
2022/11/01 07:33:47;;;;;;;;;;;15.00;99.90;;;;;;5056900;28;19920;-71
2022/11/01 07:36:12;;;;;;;;;;;15.10;99.90;;;;;;5038364;28;19916;-71
2022/11/01 07:38:38;;;;;;;;;;;15.20;99.90;;;;;;5055148;28;19909;-71
2022/11/01 07:41:04;;;;;;;;;;;15.20;99.90;;;;;;5056273;28;19913;-71
2022/11/01 07:43:30;;;;;;;;;;;15.10;99.90;;;;;;5055951;28;19908;-71
2022/11/01 07:45:59;;;;;;;;;;;15.20;99.90;;;;;;5055821;28;20144;-71
2022/11/01 07:48:25;;;;;;;;;;;15.30;99.90;;;;;;5061919;28;19920;-71
2022/11/01 07:50:54;;;;;;;;;;;15.40;99.90;;;;;;5058563;28;20294;-72
2022/11/01 07:53:19;;;;;;;;;;;15.60;99.90;;;;;;5076293;28;19913;-72
2022/11/01 07:55:45;;;;;;;;;;;15.60;99.90;;;;;;5076047;28;19966;-72
2022/11/01 07:58:12;;;;;;;;;;;15.60;99.90;;;;;;5076125;28;19912;-72
2022/11/01 08:00:38;;;;;;;;;;;15.70;99.90;;;;;;5075393;28;20255;-71
2022/11/01 08:03:05;;;;;;;;;;;15.80;99.90;;;;;;5075287;28;20416;-71
2022/11/01 08:05:32;;;;;;;;;;;15.90;99.90;;;;;;5055086;28;19909;-71
2022/11/01 08:07:57;;;;;;;;;;;16.00;99.90;;;;;;5074513;28;19908;-72
2022/11/01 08:10:23;;;;;;;;;;;16.10;99.90;;;;;;5074331;28;19913;-72
2022/11/01 08:12:49;;;;;;;;;;;16.30;99.90;;;;;;5074534;28;19912;-72
2022/11/01 08:15:15;;;;;;;;;;;16.40;99.90;;;;;;5074019;28;19916;-71
2022/11/01 08:17:40;;;;;;;;;;;16.50;99.90;;;;;;5056578;28;19908;-70
2022/11/01 08:20:06;;;;;;;;;;;16.60;99.90;;;;;;5074407;28;19920;-72
2022/11/01 08:22:32;;;;;;;;;;;16.50;99.90;;;;;;5061223;28;19971;-72
2022/11/01 08:24:58;;;;;;;;;;;16.50;99.90;;;;;;5052922;28;19913;-72
2022/11/01 08:27:24;;;;;;;;;;;16.50;99.90;;;;;;5053119;28;19909;-72
2022/11/01 08:29:50;;;;;;;;;;;16.50;99.90;;;;;;5070966;28;19983;-72
2022/11/01 08:32:21;;;;;;;;;;;16.60;99.90;;;;;;5082108;28;19967;-72
2022/11/01 08:34:51;;;;;;;;;;;16.70;99.90;;;;;;5076509;28;20363;-72
2022/11/01 08:37:17;;;;;;;;;;;16.80;99.90;;;;;;5079556;28;19909;-71
2022/11/01 08:39:43;;;;;;;;;;;16.90;99.90;;;;;;5073400;28;19919;-72
2022/11/01 08:42:09;;;;;;;;;;;16.90;99.90;;;;;;5074172;28;19967;-72
2022/11/01 08:44:34;;;;;;;;;;;17.00;99.90;;;;;;5074049;28;19912;-73
2022/11/01 08:47:00;;;;;;;;;;;17.10;99.90;;;;;;5074248;28;19998;-72
2022/11/01 08:49:27;;;;;;;;;;;17.20;99.90;;;;;;5073816;28;19955;-72
2022/11/01 08:51:52;;;;;;;;;;;17.30;99.90;;;;;;5074217;28;19908;-72
2022/11/01 08:54:18;;;;;;;;;;;17.40;99.90;;;;;;5073627;28;19912;-72
2022/11/01 08:56:44;;;;;;;;;;;17.50;99.90;;;;;;5072269;28;19991;-72
2022/11/01 08:59:10;;;;;;;;;;;17.60;99.90;;;;;;5055853;28;19915;-72
2022/11/01 09:01:37;;;;;;;;;;;17.60;99.90;;;;;;4982308;28;2091499;-72
2022/11/01 09:04:03;;;;;;;;;;;17.80;99.90;;;;;;5057236;28;20350;-72
2022/11/01 09:06:29;;;;;;;;;;;17.90;99.90;;;;;;5057185;28;20354;-72
2022/11/01 09:08:55;;;;;;;;;;;18.00;99.90;;;;;;5075751;28;19951;-72
2022/11/01 09:11:21;;;;;;;;;;;18.10;99.90;;;;;;5095162;28;19908;-72
2022/11/01 09:13:47;;;;;;;;;;;18.10;99.90;;;;;;5060026;28;19912;-72
2022/11/01 09:16:13;;;;;;;;;;;18.20;99.90;;;;;;5074187;28;19931;-72
2022/11/01 09:18:39;;;;;;;;;;;18.30;99.90;;;;;;5074705;28;20371;-72
2022/11/01 09:21:06;;;;;;;;;;;18.40;99.90;;;;;;5074404;28;19916;-72
2022/11/01 09:23:36;;;;;;;;;;;18.40;99.90;;;;;;5063122;28;19912;-72
2022/11/01 09:26:06;;;;;;;;;;;18.40;99.90;;;;;;5070722;28;19927;-73
2022/11/01 09:28:32;;;;;;;;;;;18.40;99.90;;;;;;5091057;28;19908;-72
2022/11/01 09:31:25;;;;;;;;;;;18.40;99.90;;;;;;5066941;28;19983;-72
2022/11/01 09:33:53;;;;;;;;;;;18.50;99.90;;;;;;5051945;28;19927;-72
2022/11/01 09:36:20;;;;;;;;;;;18.60;99.90;;;;;;5074422;28;20007;-72
2022/11/01 09:38:45;;;;;;;;;;;18.60;99.90;;;;;;5074946;28;19912;-72
2022/11/01 09:41:34;;;;;;;;;;;18.70;99.90;;;;;;5073757;28;19967;-72
2022/11/01 09:44:01;;;;;;;;;;;18.80;99.90;;;;;;5047870;28;19909;-72
2022/11/01 09:46:30;;;;;;;;;;;18.90;99.90;;;;;;5056026;28;20260;-72
2022/11/01 09:48:57;;;;;;;;;;;18.90;99.90;;;;;;5073363;28;20309;-72
2022/11/01 09:51:24;;;;;;;;;;;18.90;99.90;;;;;;5071854;28;20139;-72
2022/11/01 09:53:52;;;;;;;;;;;18.90;99.90;;;;;;5081634;28;20270;-72
2022/11/01 09:56:18;;;;;;;;;;;18.90;99.90;;;;;;5066449;28;20003;-72
2022/11/01 09:59:02;;;;;;;;;;;19.00;99.90;;;;;;5075094;28;20010;-73
2022/11/01 10:01:28;;;;;;;;;;;18.90;99.90;;;;;;5074961;28;19942;-72
2022/11/01 10:04:12;;;;;;;;;;;18.90;99.90;;;;;;5082801;28;19912;-72
2022/11/01 10:06:40;;;;;;;;;;;18.90;99.90;;;;;;5077961;28;19939;-72
2022/11/01 10:09:18;;;;;;;;;;;19.00;99.90;;;;;;5076135;28;19922;-73
2022/11/01 10:11:51;;;;;;;;;;;19.00;99.90;;;;;;5077108;28;20003;-72
2022/11/01 10:14:40;;;;;;;;;;;19.00;99.90;;;;;;5073606;28;19917;-72
2022/11/01 10:17:13;;;;;;;;;;;19.10;99.90;;;;;;5040621;28;20385;-72
2022/11/01 10:19:41;;;;;;;;;;;19.20;99.90;;;;;;5074866;28;19920;-72
2022/11/01 10:22:12;;;;;;;;;;;19.10;99.90;;;;;;5080272;28;19913;-72
2022/11/01 10:24:37;;;;;;;;;;;19.10;99.90;;;;;;5065649;28;19988;-73
2022/11/01 10:27:06;;;;;;;;;;;19.00;99.90;;;;;;5053805;28;21380;-72
2022/11/01 10:29:39;;;;;;;;;;;19.00;99.90;;;;;;5072842;28;19919;-73
2022/11/01 10:32:11;;;;;;;;;;;19.00;99.90;;;;;;5073699;28;19909;-70
2022/11/01 10:34:38;;;;;;;;;;;18.90;99.90;;;;;;5073854;28;19916;-70
2022/11/01 10:37:14;;;;;;;;;;;18.90;99.90;;;;;;5083151;28;20313;-70
2022/11/01 10:39:56;;;;;;;;;;;18.80;99.90;;;;;;5049610;28;19935;-69
2022/11/01 10:42:22;;;;;;;;;;;18.90;99.90;;;;;;5074166;28;19913;-69
2022/11/01 10:44:54;;;;;;;;;;;18.90;99.90;;;;;;5069371;28;19913;-70
2022/11/01 10:47:20;;;;;;;;;;;19.00;99.90;;;;;;5048613;28;20439;-69
2022/11/01 10:50:09;;;;;;;;;;;19.00;99.90;;;;;;5071279;28;20001;-69
2022/11/01 10:52:46;;;;;;;;;;;19.00;99.90;;;;;;5067353;28;20260;-69
2022/11/01 10:55:15;;;;;;;;;;;19.10;99.90;;;;;;5072031;28;19939;-69
2022/11/01 10:57:44;;;;;;;;;;;19.10;99.90;;;;;;5053773;28;19994;-69
2022/11/01 11:00:15;;;;;;;;;;;19.00;99.90;;;;;;5066157;28;19985;-70
2022/11/01 11:02:45;;;;;;;;;;;19.10;99.90;;;;;;5052301;28;19917;-69
2022/11/01 11:05:12;;;;;;;;;;;19.10;99.90;;;;;;5071879;28;19913;-70
2022/11/01 11:07:38;;;;;;;;;;;19.10;99.90;;;;;;5057014;28;20374;-70
2022/11/01 11:10:13;;;;;;;;;;;19.10;99.90;;;;;;5076144;28;20019;-71
2022/11/01 11:12:41;;;;;;;;;;;19.20;99.90;;;;;;5060619;28;19928;-71
2022/11/01 11:15:15;;;;;;;;;;;19.10;99.90;;;;;;5057316;28;20286;-70
2022/11/01 11:17:45;;;;;;;;;;;19.20;99.90;;;;;;5066064;28;19912;-71
2022/11/01 11:20:12;;;;;;;;;;;19.10;99.90;;;;;;5074743;28;19959;-71
2022/11/01 11:22:42;;;;;;;;;;;19.10;99.90;;;;;;5069509;28;20375;-71
2022/11/01 11:25:15;;;;;;;;;;;19.10;99.90;;;;;;5078534;28;19999;-70
2022/11/01 11:27:46;;;;;;;;;;;19.20;99.90;;;;;;5058946;28;20377;-70
2022/11/01 11:30:13;;;;;;;;;;;19.20;99.90;;;;;;5082936;28;19912;-70
2022/11/01 11:32:49;;;;;;;;;;;19.30;99.90;;;;;;5045437;28;20187;-69
2022/11/01 11:35:15;;;;;;;;;;;19.30;99.90;;;;;;5048552;28;19923;-70
2022/11/01 11:37:50;;;;;;;;;;;19.20;99.90;;;;;;5069876;28;19920;-70
2022/11/01 11:40:23;;;;;;;;;;;19.20;99.90;;;;;;5070636;28;19912;-69
2022/11/01 11:42:50;;;;;;;;;;;19.30;99.90;;;;;;5064259;28;19924;-70
2022/11/01 11:45:19;;;;;;;;;;;19.30;99.90;;;;;;5057644;28;19923;-70
2022/11/01 11:47:47;;;;;;;;;;;19.30;99.90;;;;;;5078432;28;19916;-70
2022/11/01 11:50:19;;;;;;;;;;;19.40;99.90;;;;;;5059645;28;19913;-70
2022/11/01 11:52:49;;;;;;;;;;;19.50;99.90;;;;;;5070304;28;19986;-70
2022/11/01 11:55:33;;;;;;;;;;;19.50;99.90;;;;;;5070889;28;19917;-70
2022/11/01 11:57:59;;;;;;;;;;;19.40;99.90;;;;;;5071274;28;20400;-70
2022/11/01 12:00:27;;;;;;;;;;;19.40;99.90;;;;;;5046303;28;19909;-70
2022/11/01 12:02:52;;;;;;;;;;;19.40;99.90;;;;;;5056554;28;19921;-70
2022/11/01 12:05:21;;;;;;;;;;;19.40;99.90;;;;;;5074713;28;19917;-70
2022/11/01 12:07:47;;;;;;;;;;;19.40;99.90;;;;;;5067371;28;19966;-70
2022/11/01 12:10:34;;;;;;;;;;;19.60;99.90;;;;;;5075210;28;19918;-70
2022/11/01 12:13:00;;;;;;;;;;;19.60;99.90;;;;;;5076467;28;19908;-70
2022/11/01 12:15:29;;;;;;;;;;;19.50;99.90;;;;;;5064318;28;19924;-69
2022/11/01 12:17:55;;;;;;;;;;;19.50;99.90;;;;;;5082427;28;20436;-71
2022/11/01 12:20:23;;;;;;;;;;;19.60;99.90;;;;;;5057271;28;19913;-71
2022/11/01 12:23:01;;;;;;;;;;;19.60;99.90;;;;;;5072991;28;19943;-73
2022/11/01 12:25:27;;;;;;;;;;;19.60;99.90;;;;;;5067938;28;20151;-71
2022/11/01 12:27:56;;;;;;;;;;;19.60;99.90;;;;;;5070552;28;19916;-71
2022/11/01 12:30:23;;;;;;;;;;;19.60;99.90;;;;;;5064896;28;19971;-71
2022/11/01 12:32:56;;;;;;;;;;;19.60;99.90;;;;;;5073649;28;19920;-71
2022/11/01 12:35:25;;;;;;;;;;;19.50;99.90;;;;;;5072126;28;20366;-71
2022/11/01 12:37:57;;;;;;;;;;;19.40;99.90;;;;;;5073981;28;19916;-71
2022/11/01 12:40:26;;;;;;;;;;;19.30;99.90;;;;;;5071817;28;19919;-71
2022/11/01 12:43:02;;;;;;;;;;;19.10;99.90;;;;;;5058724;28;19912;-71
2022/11/01 12:45:30;;;;;;;;;;;19.10;99.90;;;;;;5074129;28;20379;-71
2022/11/01 12:47:59;;;;;;;;;;;19.00;99.90;;;;;;5072838;28;20002;-72
2022/11/01 12:50:33;;;;;;;;;;;18.90;99.90;;;;;;5071605;28;19916;-71
2022/11/01 12:53:03;;;;;;;;;;;18.90;99.90;;;;;;5070945;28;19913;-71
2022/11/01 12:55:34;;;;;;;;;;;19.00;99.90;;;;;;5069789;28;19916;-71
2022/11/01 12:58:00;;;;;;;;;;;19.00;99.90;;;;;;5072571;28;20017;-71
2022/11/01 13:00:29;;;;;;;;;;;19.00;99.90;;;;;;5072385;28;20269;-71
2022/11/01 13:03:19;;;;;;;;;;;18.80;99.90;;;;;;5071722;28;19920;-71
2022/11/01 13:06:04;;;;;;;;;;;18.90;99.90;;;;;;5049620;28;19913;-72
2022/11/01 13:08:32;;;;;;;;;;;18.90;99.90;;;;;;5069346;28;20015;-72
2022/11/01 13:11:03;;;;;;;;;;;19.00;99.90;;;;;;5083549;28;19914;-71
2022/11/01 13:13:34;;;;;;;;;;;18.90;99.90;;;;;;5054154;28;19956;-71
2022/11/01 13:16:14;;;;;;;;;;;18.90;99.90;;;;;;5070063;28;20034;-71
2022/11/01 13:18:52;;;;;;;;;;;18.90;99.90;;;;;;5071667;28;19922;-74
2022/11/01 13:21:25;;;;;;;;;;;18.90;99.90;;;;;;5069983;28;19919;-71
2022/11/01 13:24:00;;;;;;;;;;;18.80;99.90;;;;;;5048592;28;19940;-73
2022/11/01 13:26:32;;;;;;;;;;;18.80;99.90;;;;;;5063651;28;19972;-71
2022/11/01 13:29:01;;;;;;;;;;;18.80;99.90;;;;;;5055010;28;20203;-71
2022/11/01 13:31:30;;;;;;;;;;;18.70;99.90;;;;;;5074187;28;19908;-71
2022/11/01 13:34:07;;;;;;;;;;;18.70;99.90;;;;;;5049465;28;19920;-71
2022/11/01 13:36:50;;;;;;;;;;;18.80;99.90;;;;;;5070226;28;20196;-71
2022/11/01 13:39:18;;;;;;;;;;;18.70;99.90;;;;;;5071342;28;19916;-71
2022/11/01 13:41:53;;;;;;;;;;;18.70;99.90;;;;;;5055240;28;19908;-72
2022/11/01 13:44:21;;;;;;;;;;;18.80;99.90;;;;;;5084778;28;19912;-71
2022/11/01 13:47:01;;;;;;;;;;;18.80;99.90;;;;;;5093467;28;19940;-71
2022/11/01 13:49:27;;;;;;;;;;;18.80;99.90;;;;;;5068556;28;19912;-70
2022/11/01 13:51:56;;;;;;;;;;;18.70;99.90;;;;;;5073857;28;20370;-71
2022/11/01 13:54:28;;;;;;;;;;;18.70;99.90;;;;;;5068775;28;19920;-71
2022/11/01 13:57:12;;;;;;;;;;;18.70;99.90;;;;;;5076147;28;19966;-71
2022/11/01 13:59:43;;;;;;;;;;;18.80;99.90;;;;;;5094229;28;19931;-71
2022/11/01 14:02:27;;;;;;;;;;;18.80;99.90;;;;;;5076682;28;19923;-71
2022/11/01 14:04:54;;;;;;;;;;;18.80;99.90;;;;;;5079736;28;19918;-70
2022/11/01 14:07:22;;;;;;;;;;;18.80;99.90;;;;;;5080618;28;19951;-72
2022/11/01 14:09:51;;;;;;;;;;;18.80;99.90;;;;;;5073943;28;20525;-72
2022/11/01 14:12:31;;;;;;;;;;;18.70;99.90;;;;;;5073997;28;20373;-71
2022/11/01 14:15:19;;;;;;;;;;;18.70;99.90;;;;;;5082107;28;20324;-72
2022/11/01 14:18:02;;;;;;;;;;;18.80;99.90;;;;;;5067296;28;19913;-72
2022/11/01 14:20:28;;;;;;;;;;;18.80;99.90;;;;;;5063462;28;19920;-71
2022/11/01 14:22:55;;;;;;;;;;;18.80;99.90;;;;;;5055311;28;20298;-72
2022/11/01 14:25:22;;;;;;;;;;;18.80;99.90;;;;;;5079431;28;19959;-72
2022/11/01 14:28:08;;;;;;;;;;;18.80;99.90;;;;;;5074487;28;19943;-71
2022/11/01 14:30:37;;;;;;;;;;;18.90;99.90;;;;;;5074130;28;19916;-71
2022/11/01 14:33:04;;;;;;;;;;;19.00;99.90;;;;;;5074404;28;19935;-71